Cherryvale, Kansas
Current Conditions -  °F | °C
As of 11:52 PM on Thursday 27 Nov 2014 (Local Time) from KPPF Reporting Station
Clear Clear  
Wind Chill: 31°   Ceiling: Unl
Heat Index: 35°   Visibility: 10mi
Dew Point: 25°   Wind: 5mph
Humidity: 67%   Direction: 150°SSE
Pressure: 30.26"   Gusts: NA
Location:  37.27°N, 95.55°W
Report Text: KPPF 280552Z AUTO 15004KT 10SM CLR 02/M04 A3026 RMK AO2 SLP251 T00171039 10033 20017 400671078 56023
Loading
Personal Weather Stations






























Interactive Weather Map New forecast layout! Learn more

10-Day Weather Forecast

Advertisements
Track Severe Weather on mobile